Tampa, FL

01:29 PM EDT on Ιούλιος 05, 2015 (GMT -0400)
MacDill Air Force Base | | Change Station
CLOSE
Current Station
Airport
Location: Tampa Macdill AFB,
Elevation: 13 ft
Nearby Weather Stations

Elev 13 ft 27.85 °N, 82.52 °W | Updated 31 minutes ago

Λίγο Νεφελώδης
Λίγο Νεφελώδης
93 ° F
Feels Like 108 ° F
N
7
Ανεμος Μεταβλητός Ανεμος from Νότιος

Σήμερα
High -- | Low -- ° F
--% Chance of Precip.
Yesterday
High -- | Low -- ° F
Precip. -- in
6:39 AM 8:30 PM
Αμφίκυρτος, 83% visible
Ατμοσφαιρική Πίεση 30.17 in
Ορατότητα 10.0 Μίλια
Σύννεφα Few 18000 ft
Διάσπαρτα Νέφη 21000 ft
Δείκτης Δυσφορίας 108 ° F
Σημείο Δρόσου 78 ° F
Υγρασία 62%
Rainfall 0.00 in
Snow Depth Not available.
Υπεριώδης ακτινοβολία (UV) 12 out of 12
Pollen 3.70 out of 12
Air Quality Not available.
Flu Activity Not available.
METAR KMCF 051658Z AUTO 18006KT 10SM FEW180 SCT210 34/26 A3016 RMK AO2 DZE1558 SLP216 P0000 T03370255

More Conditions Fewer Conditions

Ατμοσφαιρική Πίεση 30.17 in
Ορατότητα 10.0 Μίλια
Σύννεφα Few 18000 ft
Διάσπαρτα Νέφη 21000 ft
Δείκτης Δυσφορίας 108 ° F
Σημείο Δρόσου 78 ° F
Υγρασία 62%
Rainfall 0.00 in
Snow Depth Not available.
Υπεριώδης ακτινοβολία (UV) 12 out of 12
Pollen 3.70 out of 12
Air Quality Not available.
Flu Activity Not available.
METAR KMCF 051658Z AUTO 18006KT 10SM FEW180 SCT210 34/26 A3016 RMK AO2 DZE1558 SLP216 P0000 T03370255

More Conditions Fewer Conditions

10-Day Weather Forecast

×

Almanac

Αστρονομία

Jul. 05, 2015 Rise Set
Actual Time
Civil Twilight
Nautical Twilight
Astronomical Twilight
Moon
Length Of Visible Light
Διάρκεια ημέρας
Tomorrow will be .
, % of the Moon is Illuminated

Today's Extremes

State Highs State Lows

Community

WunderPhotos

Upload Photos

1,835,322 photos uploaded!

WunderBlogs® & News

Nearby

Air Quality

  Air Quality AQ Index Pollutant
Not available.

Snow Depth

Station Depth Elevation

Earthquake Activity

City Distance Mag. Time & Date
Minimum magnitude displayed is 2.5.

Coastal Water Temperatures

Τοποθεσία Θερμοκρασία

Stations

Nearby Weather Stations

Station Location Temp Δείκτης Ψυχρότητας Σημείο Δρόσου Υγρασία Ανεμος Precip. Elev Ενημερώθηκε Type